createdAt,value
2019-04-16T00:01:04.203Z,99951.12
2019-04-16T00:03:33.117Z,99948.35
2019-04-16T00:06:06.359Z,99943.59
2019-04-16T00:08:37.566Z,99940.47
2019-04-16T00:11:13.652Z,99939.69
2019-04-16T00:13:44.859Z,99945.74
2019-04-16T00:16:13.794Z,99944.98
2019-04-16T00:18:56.439Z,99947.05
2019-04-16T00:21:30.746Z,99956.20
2019-04-16T00:24:18.623Z,99957.75
2019-04-16T00:26:46.890Z,99955.69
2019-04-16T00:29:15.612Z,99945.10
2019-04-16T00:31:45.901Z,99959.24
2019-04-16T00:34:14.696Z,99957.48
2019-04-16T00:36:43.412Z,99959.59
2019-04-16T00:39:12.129Z,99956.64
2019-04-16T00:41:40.944Z,99952.17
2019-04-16T00:44:09.662Z,99954.52
2019-04-16T00:46:39.494Z,99951.21
2019-04-16T00:49:08.303Z,99948.55
2019-04-16T00:51:37.019Z,99952.95
2019-04-16T00:54:09.705Z,99945.62
2019-04-16T00:56:36.420Z,99939.86
2019-04-16T00:59:05.136Z,99934.37
2019-04-16T01:01:33.943Z,99936.89
2019-04-16T01:04:03.236Z,99946.33
2019-04-16T01:06:32.356Z,99948.47
2019-04-16T01:09:01.080Z,99949.50
2019-04-16T01:11:29.900Z,99950.35
2019-04-16T01:13:59.123Z,99954.41
2019-04-16T01:16:30.305Z,99947.11
2019-04-16T01:18:58.362Z,99948.23
2019-04-16T01:21:27.087Z,99948.77
2019-04-16T01:23:55.817Z,99956.82
2019-04-16T01:26:26.874Z,99949.00
2019-04-16T01:29:03.737Z,99954.23
2019-04-16T01:31:32.566Z,99950.52
2019-04-16T01:34:19.283Z,99952.89
2019-04-16T01:37:01.923Z,99949.00
2019-04-16T01:39:35.257Z,99943.46
2019-04-16T01:42:04.083Z,99939.77
2019-04-16T01:44:32.957Z,99935.58
2019-04-16T01:47:04.332Z,99932.70
2019-04-16T01:49:32.121Z,99927.72
2019-04-16T01:52:00.999Z,99931.42
2019-04-16T01:54:29.720Z,99929.09
2019-04-16T01:56:59.924Z,99922.38
2019-04-16T01:59:29.846Z,99922.91
2019-04-16T02:01:58.536Z,99921.88
2019-04-16T02:04:27.256Z,99928.16
2019-04-16T02:06:57.797Z,99927.59
2019-04-16T02:09:27.639Z,99932.81
2019-04-16T02:11:56.360Z,99928.61
2019-04-16T02:14:25.233Z,99927.30
2019-04-16T02:16:56.120Z,99932.67
2019-04-16T02:19:24.396Z,99936.33
2019-04-16T02:21:53.248Z,99938.42
2019-04-16T02:24:21.965Z,99947.11
2019-04-16T02:26:54.591Z,99952.81
2019-04-16T02:29:21.172Z,99947.89
2019-04-16T02:31:51.554Z,99939.75
2019-04-16T02:34:20.339Z,99941.03
2019-04-16T02:36:50.352Z,99937.66
2019-04-16T02:39:27.518Z,99940.53
2019-04-16T02:41:49.523Z,99935.30
2019-04-16T02:44:18.301Z,99936.34
2019-04-16T02:46:47.019Z,99930.38
2019-04-16T02:49:15.737Z,99934.48
2019-04-16T02:51:46.112Z,99932.06
2019-04-16T02:54:19.194Z,99931.06
2019-04-16T02:56:55.585Z,99932.67
2019-04-16T02:59:26.030Z,99931.11
2019-04-16T03:01:56.518Z,99934.17
2019-04-16T03:04:27.710Z,99932.16
2019-04-16T03:06:56.543Z,99930.89
2019-04-16T03:09:25.266Z,99935.39
2019-04-16T03:11:54.115Z,99932.80
2019-04-16T03:14:23.137Z,99933.03
2019-04-16T03:17:02.465Z,99924.91
2019-04-16T03:19:41.856Z,99926.52
2019-04-16T03:22:10.988Z,99927.06
2019-04-16T03:24:40.354Z,99931.49
2019-04-16T03:27:10.033Z,99933.22
2019-04-16T03:29:38.987Z,99933.73
2019-04-16T03:32:12.781Z,99929.59
2019-04-16T03:34:38.147Z,99929.59
2019-04-16T03:37:07.963Z,99939.50
2019-04-16T03:39:36.695Z,99939.73
2019-04-16T03:42:05.594Z,99938.72
2019-04-16T03:44:37.221Z,99947.56
2019-04-16T03:47:04.784Z,99945.70
2019-04-16T03:49:33.510Z,99944.66
2019-04-16T03:52:04.791Z,99941.52
2019-04-16T03:54:32.746Z,99944.94
2019-04-16T03:57:02.057Z,99946.42
2019-04-16T03:59:31.637Z,99942.27
2019-04-16T04:02:00.355Z,99945.32
2019-04-16T04:04:30.009Z,99942.92
2019-04-16T04:07:00.072Z,99945.78
2019-04-16T04:09:29.295Z,99949.65
2019-04-16T04:11:58.124Z,99948.05
2019-04-16T04:14:27.764Z,99951.19
2019-04-16T04:16:56.488Z,99948.64
2019-04-16T04:19:25.216Z,99948.08
2019-04-16T04:21:54.492Z,99947.08
2019-04-16T04:24:23.312Z,99944.92
2019-04-16T04:26:52.112Z,99947.77
2019-04-16T04:29:24.757Z,99953.82
2019-04-16T04:31:51.310Z,99955.89
2019-04-16T04:34:20.039Z,99949.77
2019-04-16T04:36:48.908Z,99955.48
2019-04-16T04:39:17.632Z,99957.77
2019-04-16T04:41:46.357Z,99958.53
2019-04-16T04:44:15.147Z,99962.39
2019-04-16T04:46:46.077Z,99968.56
2019-04-16T04:49:14.317Z,99973.00
2019-04-16T04:51:43.650Z,99974.59
2019-04-16T04:54:12.483Z,99971.94
2019-04-16T04:56:41.212Z,99969.30
2019-04-16T04:59:09.999Z,99968.20
2019-04-16T05:01:41.896Z,99972.66
2019-04-16T05:04:27.399Z,99967.26
2019-04-16T05:06:58.057Z,99971.98
2019-04-16T05:09:29.404Z,99966.61
2019-04-16T05:11:57.359Z,99970.30
2019-04-16T05:14:26.158Z,99966.85
2019-04-16T05:16:54.875Z,99973.78
2019-04-16T05:19:24.823Z,99980.58
2019-04-16T05:21:53.543Z,99977.64
2019-04-16T05:24:22.266Z,99981.23
2019-04-16T05:26:51.066Z,99984.23
2019-04-16T05:29:19.802Z,99981.22
2019-04-16T05:31:48.595Z,99983.69
2019-04-16T05:34:18.324Z,99977.77
2019-04-16T05:36:48.154Z,99977.05
2019-04-16T05:39:17.015Z,99979.12
2019-04-16T05:41:45.791Z,99981.12
2019-04-16T05:44:14.521Z,99984.96
2019-04-16T05:46:46.675Z,99979.98
2019-04-16T05:49:13.843Z,99981.42
2019-04-16T05:51:42.589Z,99977.77
2019-04-16T05:54:18.806Z,99983.31
2019-04-16T05:56:49.105Z,99977.33
2019-04-16T05:59:17.829Z,99977.41
2019-04-16T06:01:57.612Z,99981.65
2019-04-16T06:04:26.337Z,99983.46
2019-04-16T06:06:55.122Z,99983.88
2019-04-16T06:09:23.977Z,99987.36
2019-04-16T06:11:52.703Z,99985.54
2019-04-16T06:14:40.580Z,99994.37
2019-04-16T06:17:10.946Z,99990.83
2019-04-16T06:19:53.662Z,99993.65
2019-04-16T06:22:39.288Z,99991.01
2019-04-16T06:25:26.087Z,99989.75
2019-04-16T06:27:59.317Z,99991.19
2019-04-16T06:30:32.993Z,99990.08
2019-04-16T06:33:04.707Z,99989.75
2019-04-16T06:35:46.960Z,99994.31
2019-04-16T06:38:26.177Z,99999.67
2019-04-16T06:41:08.731Z,100000.06
2019-04-16T06:43:45.040Z,99996.56
2019-04-16T06:46:21.590Z,99987.61
2019-04-16T06:48:51.995Z,99986.00
2019-04-16T06:51:34.914Z,99984.27
2019-04-16T06:54:25.566Z,99986.72
2019-04-16T06:57:12.872Z,99983.42
2019-04-16T06:59:43.383Z,99982.38
2019-04-16T07:02:13.663Z,99984.92
2019-04-16T07:04:47.164Z,99983.52
2019-04-16T07:07:40.028Z,99982.11
2019-04-16T07:10:04.792Z,99984.75
2019-04-16T07:12:38.155Z,99987.45
2019-04-16T07:15:05.752Z,99992.75
2019-04-16T07:17:34.581Z,99993.78
2019-04-16T07:20:05.019Z,99988.44
2019-04-16T07:22:33.938Z,99988.46
2019-04-16T07:25:04.463Z,99989.30
2019-04-16T07:27:38.280Z,99979.46
2019-04-16T07:30:09.051Z,99983.58
2019-04-16T07:32:39.589Z,99980.41
2019-04-16T07:35:27.233Z,99981.58
2019-04-16T07:37:57.769Z,99982.69
2019-04-16T07:40:33.880Z,99983.43
2019-04-16T07:43:04.179Z,99987.45
2019-04-16T07:45:43.534Z,99987.50
2019-04-16T07:48:29.126Z,99977.14
2019-04-16T07:51:11.809Z,99982.15
2019-04-16T07:53:47.150Z,99975.82
2019-04-16T07:56:26.517Z,99972.55
2019-04-16T07:59:00.058Z,99970.62
2019-04-16T08:01:25.682Z,99966.66
2019-04-16T08:03:57.470Z,99970.80
2019-04-16T08:06:24.985Z,99963.84
2019-04-16T08:08:53.927Z,99969.73
2019-04-16T08:11:24.291Z,99960.80
2019-04-16T08:13:53.023Z,99961.88
2019-04-16T08:16:21.743Z,99958.61
2019-04-16T08:18:51.112Z,99954.23
2019-04-16T08:21:22.596Z,99953.52
2019-04-16T08:23:53.057Z,99950.95
2019-04-16T08:26:22.027Z,99949.44
2019-04-16T08:28:50.756Z,99944.83
2019-04-16T08:31:21.052Z,99951.17
2019-04-16T08:33:49.821Z,99944.03
2019-04-16T08:36:18.561Z,99943.71
2019-04-16T08:38:47.284Z,99934.80
2019-04-16T08:41:19.963Z,99937.43
2019-04-16T08:43:46.646Z,99933.65
2019-04-16T08:46:15.372Z,99918.56
2019-04-16T08:48:48.978Z,99920.71
2019-04-16T08:51:14.619Z,99912.67
2019-04-16T08:53:43.708Z,99920.33
2019-04-16T08:56:13.865Z,99916.56
2019-04-16T08:58:42.584Z,99917.30
2019-04-16T09:01:15.413Z,99912.95
2019-04-16T09:03:44.213Z,99907.49
2019-04-16T09:06:14.153Z,99904.75
2019-04-16T09:08:44.611Z,99896.52
2019-04-16T09:11:23.201Z,99907.26
2019-04-16T09:13:48.146Z,99902.10
2019-04-16T09:16:15.894Z,99894.39
2019-04-16T09:18:50.182Z,99897.13
2019-04-16T09:21:18.907Z,99896.42
2019-04-16T09:24:08.844Z,99895.41
2019-04-16T09:26:43.677Z,99888.86
2019-04-16T09:29:27.777Z,99882.50
2019-04-16T09:32:03.839Z,99881.11
2019-04-16T09:34:35.683Z,99882.06
2019-04-16T09:37:12.103Z,99880.65
2019-04-16T09:39:45.300Z,99872.06
2019-04-16T09:42:14.029Z,99871.00
2019-04-16T09:44:42.749Z,99868.72
2019-04-16T09:47:14.077Z,99860.23
2019-04-16T09:49:42.810Z,99860.23
2019-04-16T09:52:11.566Z,99853.08
2019-04-16T09:54:41.504Z,99855.98
2019-04-16T09:57:11.574Z,99853.50
2019-04-16T09:59:44.710Z,99847.12
2019-04-16T10:02:14.045Z,99837.94
2019-04-16T10:04:42.776Z,99835.64
2019-04-16T10:07:12.980Z,99839.71
2019-04-16T10:09:41.840Z,99837.22
2019-04-16T10:12:10.561Z,99837.88
2019-04-16T10:14:39.322Z,99832.14
2019-04-16T10:17:08.379Z,99830.94
2019-04-16T10:19:37.090Z,99828.02
2019-04-16T10:22:05.810Z,99821.29
2019-04-16T10:24:36.416Z,99821.53
2019-04-16T10:27:05.156Z,99820.86
2019-04-16T10:29:33.897Z,99813.48
2019-04-16T10:32:02.673Z,99810.34
2019-04-16T10:34:31.393Z,99810.67
2019-04-16T10:37:00.118Z,99813.30
2019-04-16T10:39:36.746Z,99803.91
2019-04-16T10:42:16.155Z,99800.98
2019-04-16T10:44:52.858Z,99794.19
2019-04-16T10:47:39.856Z,99783.75
2019-04-16T10:50:13.513Z,99783.69
2019-04-16T10:52:54.566Z,99781.77
2019-04-16T10:55:33.782Z,99779.81
2019-04-16T10:58:20.675Z,99772.64
2019-04-16T11:00:51.111Z,99772.45
2019-04-16T11:03:21.432Z,99774.03
2019-04-16T11:06:08.503Z,99770.73
2019-04-16T11:08:37.224Z,99759.11
2019-04-16T11:11:06.003Z,99763.14
2019-04-16T11:13:36.411Z,99764.34
2019-04-16T11:16:07.209Z,99762.02
2019-04-16T11:18:36.087Z,99756.80
2019-04-16T11:21:05.394Z,99748.00
2019-04-16T11:23:34.105Z,99748.55
2019-04-16T11:26:02.832Z,99739.73
2019-04-16T11:28:31.659Z,99735.63
2019-04-16T11:31:01.958Z,99738.83
2019-04-16T11:33:30.678Z,99730.85
2019-04-16T11:35:59.445Z,99722.12
2019-04-16T11:38:28.154Z,99716.30
2019-04-16T11:40:56.902Z,99705.98
2019-04-16T11:43:27.247Z,99705.95
2019-04-16T11:45:55.961Z,99706.43
2019-04-16T11:48:24.677Z,99699.66
2019-04-16T11:50:53.524Z,99685.25
2019-04-16T11:53:22.268Z,99682.87
2019-04-16T11:55:51.028Z,99676.70
2019-04-16T11:58:24.169Z,99675.26
2019-04-16T12:00:54.604Z,99676.22
2019-04-16T12:03:24.943Z,99670.39
2019-04-16T12:06:27.440Z,99670.20
2019-04-16T12:09:02.883Z,99669.02
2019-04-16T12:11:36.234Z,99660.98
2019-04-16T12:14:29.635Z,99658.89
2019-04-16T12:16:47.773Z,99646.14
2019-04-16T12:19:27.343Z,99642.77
2019-04-16T12:22:04.110Z,99635.06
2019-04-16T12:24:34.425Z,99638.25
2019-04-16T12:27:21.021Z,99633.95
2019-04-16T12:29:54.313Z,99629.45
2019-04-16T12:32:30.650Z,99627.89
2019-04-16T12:35:16.830Z,99626.47
2019-04-16T12:38:04.077Z,99626.85
2019-04-16T12:40:37.358Z,99617.32
2019-04-16T12:43:07.666Z,99615.62
2019-04-16T12:45:47.115Z,99613.30
2019-04-16T12:48:17.483Z,99607.45
2019-04-16T12:50:47.756Z,99601.10
2019-04-16T12:53:18.108Z,99594.19
2019-04-16T12:56:07.404Z,99591.88
2019-04-16T12:58:50.409Z,99586.20
2019-04-16T13:01:19.668Z,99588.27
2019-04-16T13:03:55.133Z,99578.12
2019-04-16T13:06:34.427Z,99582.26
2019-04-16T13:09:21.322Z,99579.48
2019-04-16T13:11:51.619Z,99577.03
2019-04-16T13:14:21.976Z,99564.61
2019-04-16T13:17:08.949Z,99565.69
2019-04-16T13:19:55.624Z,99562.78
2019-04-16T13:22:38.337Z,99555.86
2019-04-16T13:25:18.729Z,99555.55
2019-04-16T13:27:50.871Z,99556.25
2019-04-16T13:30:18.652Z,99550.91
2019-04-16T13:32:47.386Z,99549.33
2019-04-16T13:35:16.172Z,99546.66
2019-04-16T13:37:44.938Z,99546.45
2019-04-16T13:40:15.482Z,99554.31
2019-04-16T13:42:44.332Z,99554.48
2019-04-16T13:45:27.127Z,99548.38
2019-04-16T13:47:56.011Z,99545.25
2019-04-16T13:50:29.452Z,99542.16
2019-04-16T13:52:59.802Z,99548.08
2019-04-16T13:55:38.238Z,99537.00
2019-04-16T13:58:14.022Z,99543.37
2019-04-16T14:00:50.337Z,99538.50
2019-04-16T14:03:23.742Z,99533.90
2019-04-16T14:05:52.497Z,99537.81
2019-04-16T14:08:21.262Z,99540.03
2019-04-16T14:10:50.998Z,99535.63
2019-04-16T14:13:19.721Z,99531.78
2019-04-16T14:15:48.443Z,99538.61
2019-04-16T14:18:17.243Z,99539.06
2019-04-16T14:20:46.131Z,99533.28
2019-04-16T14:23:14.851Z,99533.63
2019-04-16T14:25:43.696Z,99536.15
2019-04-16T14:28:12.478Z,99534.47
2019-04-16T14:30:43.560Z,99526.06
2019-04-16T14:33:13.931Z,99524.28
2019-04-16T14:35:42.955Z,99524.69
2019-04-16T14:38:13.239Z,99524.34
2019-04-16T14:40:42.476Z,99517.73
2019-04-16T14:43:13.472Z,99517.12
2019-04-16T14:45:57.622Z,99528.83
2019-04-16T14:48:14.280Z,99517.12
2019-04-16T14:50:43.001Z,99519.89
2019-04-16T14:53:13.583Z,99525.12
2019-04-16T14:55:59.116Z,99520.11
2019-04-16T14:58:25.122Z,99517.80
2019-04-16T15:01:11.638Z,99517.97
2019-04-16T15:03:50.763Z,99520.80
2019-04-16T15:06:27.141Z,99516.78
2019-04-16T15:08:57.419Z,99516.78
2019-04-16T15:11:27.718Z,99514.91
2019-04-16T15:14:14.225Z,99517.36
2019-04-16T15:16:44.514Z,99517.58
2019-04-16T15:19:24.218Z,99527.00
2019-04-16T15:22:14.070Z,99529.20
2019-04-16T15:24:46.272Z,99533.47
2019-04-16T15:27:19.310Z,99535.06
2019-04-16T15:30:04.749Z,99533.47
2019-04-16T15:32:38.023Z,99534.98
2019-04-16T15:35:08.427Z,99541.05
2019-04-16T15:37:45.286Z,99532.39
2019-04-16T15:40:16.117Z,99530.47
2019-04-16T15:43:02.954Z,99529.27
2019-04-16T15:45:33.254Z,99528.55
2019-04-16T15:48:06.378Z,99529.33
2019-04-16T15:50:45.829Z,99529.78
2019-04-16T15:53:16.197Z,99518.53
2019-04-16T15:56:02.711Z,99519.57
2019-04-16T15:58:33.050Z,99523.84
2019-04-16T16:01:03.457Z,99531.55
2019-04-16T16:03:50.943Z,99532.66
2019-04-16T16:06:21.245Z,99537.50
2019-04-16T16:08:51.548Z,99542.66
2019-04-16T16:11:37.179Z,99529.13
2019-04-16T16:14:06.006Z,99535.97
2019-04-16T16:16:42.049Z,99531.23
2019-04-16T16:19:05.248Z,99533.95
2019-04-16T16:21:33.971Z,99533.41
2019-04-16T16:24:06.674Z,99529.73
2019-04-16T16:26:33.311Z,99529.56
2019-04-16T16:29:02.040Z,99535.24
2019-04-16T16:31:35.073Z,99535.28
2019-04-16T16:34:02.086Z,99537.05
2019-04-16T16:36:30.808Z,99536.92
2019-04-16T16:38:59.531Z,99542.10
2019-04-16T16:41:28.293Z,99545.33
2019-04-16T16:43:57.024Z,99547.17
2019-04-16T16:46:55.933Z,99557.16
2019-04-16T16:49:12.959Z,99556.15
2019-04-16T16:51:43.252Z,99559.40
2019-04-16T16:54:22.509Z,99557.84
2019-04-16T16:57:08.190Z,99568.10
2019-04-16T16:59:40.542Z,99570.09
2019-04-16T17:02:28.893Z,99570.17
2019-04-16T17:04:59.244Z,99570.02
2019-04-16T17:07:27.969Z,99571.40
2019-04-16T17:09:56.680Z,99577.89
2019-04-16T17:12:25.558Z,99576.73
2019-04-16T17:14:54.290Z,99585.84
2019-04-16T17:17:23.020Z,99588.17
2019-04-16T17:19:51.804Z,99585.70
2019-04-16T17:22:20.528Z,99590.70
2019-04-16T17:24:49.248Z,99597.34
2019-04-16T17:27:18.349Z,99597.95
2019-04-16T17:29:49.998Z,99602.75
2019-04-16T17:32:17.631Z,99605.69
2019-04-16T17:34:46.421Z,99607.85
2019-04-16T17:37:15.138Z,99605.91
2019-04-16T17:39:45.422Z,99607.59
2019-04-16T17:42:28.020Z,99612.24
2019-04-16T17:45:13.594Z,99617.27
2019-04-16T17:48:00.450Z,99622.97
2019-04-16T17:50:45.792Z,99620.42
2019-04-16T17:53:16.174Z,99619.83
2019-04-16T17:56:02.983Z,99623.58
2019-04-16T17:58:40.347Z,99622.52
2019-04-16T18:01:16.572Z,99622.89
2019-04-16T18:03:50.043Z,99626.16
2019-04-16T18:06:29.479Z,99633.19
2019-04-16T18:08:59.847Z,99627.47
2019-04-16T18:11:41.008Z,99637.84
2019-04-16T18:14:14.948Z,99641.20
2019-04-16T18:16:45.291Z,99641.76
2019-04-16T18:19:24.883Z,99642.00
2019-04-16T18:21:57.729Z,99644.21
2019-04-16T18:24:28.720Z,99643.37
2019-04-16T18:27:14.399Z,99649.92
2019-04-16T18:30:05.157Z,99643.85
2019-04-16T18:32:39.226Z,99649.47
2019-04-16T18:35:18.300Z,99646.68
2019-04-16T18:37:51.322Z,99643.75
2019-04-16T18:40:21.613Z,99644.53
2019-04-16T18:42:51.947Z,99649.41
2019-04-16T18:45:38.621Z,99647.34
2019-04-16T18:48:17.839Z,99648.17
2019-04-16T18:50:46.674Z,99645.55
2019-04-16T18:53:15.399Z,99646.64
2019-04-16T18:55:44.582Z,99651.27
2019-04-16T18:58:13.408Z,99641.94
2019-04-16T19:00:46.491Z,99638.84
2019-04-16T19:03:15.901Z,99643.37
2019-04-16T19:05:44.760Z,99645.17
2019-04-16T19:08:13.493Z,99642.22
2019-04-16T19:10:42.549Z,99646.27
2019-04-16T19:13:11.760Z,99646.23
2019-04-16T19:15:40.573Z,99641.25
2019-04-16T19:18:19.196Z,99640.41
2019-04-16T19:20:39.787Z,99639.62
2019-04-16T19:23:08.513Z,99647.12
2019-04-16T19:25:37.418Z,99640.89
2019-04-16T19:28:06.964Z,99632.66
2019-04-16T19:30:35.760Z,99633.56
2019-04-16T19:33:04.764Z,99634.83
2019-04-16T19:35:33.504Z,99635.09
2019-04-16T19:38:06.121Z,99625.02
2019-04-16T19:40:33.860Z,99625.44
2019-04-16T19:43:03.516Z,99635.52
2019-04-16T19:45:32.301Z,99633.33
2019-04-16T19:48:02.133Z,99640.83
2019-04-16T19:50:36.168Z,99650.91
2019-04-16T19:53:01.608Z,99649.15
2019-04-16T19:55:30.380Z,99647.43
2019-04-16T19:57:59.374Z,99653.24
2019-04-16T20:00:28.118Z,99647.19
2019-04-16T20:02:57.179Z,99634.45
2019-04-16T20:05:28.782Z,99629.03
2019-04-16T20:07:56.327Z,99627.43
2019-04-16T20:10:25.107Z,99632.98
2019-04-16T20:12:57.430Z,99628.25
2019-04-16T20:15:24.277Z,99630.92
2019-04-16T20:17:53.228Z,99641.16
2019-04-16T20:20:21.969Z,99637.48
2019-04-16T20:22:50.695Z,99643.52
2019-04-16T20:25:19.769Z,99635.98
2019-04-16T20:27:48.572Z,99647.04
2019-04-16T20:30:17.297Z,99643.52
2019-04-16T20:32:46.149Z,99642.99
2019-04-16T20:35:17.870Z,99648.44
2019-04-16T20:37:45.322Z,99645.47
2019-04-16T20:40:14.581Z,99640.45
2019-04-16T20:42:44.646Z,99636.00
2019-04-16T20:45:13.374Z,99641.00
2019-04-16T20:47:42.140Z,99641.49
2019-04-16T20:50:11.366Z,99637.84
2019-04-16T20:52:40.099Z,99628.80
2019-04-16T20:55:15.644Z,99625.80
2019-04-16T20:57:41.681Z,99620.44
2019-04-16T21:00:11.814Z,99622.73
2019-04-16T21:02:40.683Z,99624.84
2019-04-16T21:05:21.645Z,99629.31
2019-04-16T21:07:39.857Z,99616.94
2019-04-16T21:10:08.822Z,99630.41
2019-04-16T21:12:37.545Z,99625.63
2019-04-16T21:15:06.992Z,99638.17
2019-04-16T21:17:39.125Z,99641.74
2019-04-16T21:20:07.076Z,99635.20
2019-04-16T21:22:35.809Z,99632.02
2019-04-16T21:25:05.091Z,99628.28
2019-04-16T21:27:35.393Z,99627.77
2019-04-16T21:30:11.195Z,99629.58
2019-04-16T21:32:48.689Z,99631.66
2019-04-16T21:35:24.132Z,99632.28
2019-04-16T21:38:00.355Z,99632.84
2019-04-16T21:40:29.094Z,99628.98
2019-04-16T21:42:57.820Z,99618.84
2019-04-16T21:45:26.647Z,99623.51
2019-04-16T21:47:56.400Z,99628.42
2019-04-16T21:50:25.164Z,99632.31
2019-04-16T21:52:55.681Z,99623.44
2019-04-16T21:55:24.375Z,99622.75
2019-04-16T21:57:53.100Z,99625.84
2019-04-16T22:00:27.884Z,99622.58
2019-04-16T22:02:56.738Z,99608.29
2019-04-16T22:05:25.455Z,99614.53
2019-04-16T22:07:57.118Z,99613.45
2019-04-16T22:10:24.856Z,99610.38
2019-04-16T22:12:53.587Z,99615.23
2019-04-16T22:15:25.114Z,99616.81
2019-04-16T22:17:52.787Z,99613.95
2019-04-16T22:20:21.508Z,99610.83
2019-04-16T22:22:50.303Z,99611.13
2019-04-16T22:25:19.122Z,99612.70
2019-04-16T22:27:47.818Z,99608.59
2019-04-16T22:30:19.411Z,99610.91
2019-04-16T22:32:47.011Z,99617.40
2019-04-16T22:35:15.725Z,99622.34
2019-04-16T22:37:44.517Z,99638.97
2019-04-16T22:40:31.296Z,99640.93
2019-04-16T22:43:19.765Z,99634.48
2019-04-16T22:45:52.203Z,99633.82
2019-04-16T22:48:20.517Z,99627.13
2019-04-16T22:50:49.305Z,99615.20
2019-04-16T22:53:18.073Z,99611.60
2019-04-16T22:55:46.747Z,99607.98
2019-04-16T22:58:25.328Z,99605.13
2019-04-16T23:00:55.738Z,99598.40
2019-04-16T23:03:24.468Z,99603.29
2019-04-16T23:05:53.329Z,99598.80
2019-04-16T23:08:22.049Z,99603.94
2019-04-16T23:10:52.069Z,99609.28
2019-04-16T23:13:21.040Z,99613.04
2019-04-16T23:15:51.798Z,99615.23
2019-04-16T23:18:20.527Z,99614.77
2019-04-16T23:20:49.320Z,99613.72
2019-04-16T23:23:19.309Z,99604.78
2019-04-16T23:25:48.148Z,99605.13
2019-04-16T23:28:16.938Z,99606.20
2019-04-16T23:30:47.934Z,99611.16
2019-04-16T23:33:16.095Z,99604.67
2019-04-16T23:35:44.864Z,99601.02
2019-04-16T23:38:13.587Z,99602.30
2019-04-16T23:40:43.906Z,99604.88
2019-04-16T23:43:14.702Z,99610.02
2019-04-16T23:46:01.686Z,99607.38
2019-04-16T23:48:50.634Z,99608.66
2019-04-16T23:51:28.711Z,99612.56
2019-04-16T23:53:58.815Z,99604.00
2019-04-16T23:56:35.000Z,99605.01
2019-04-16T23:59:05.648Z,99606.53
